sensor_id;sensor_type;location;lat;lon;timestamp;temperature;humidity
13796;SHT30;40911;51.552;9.874;2023-12-22T00:02:05;5.32;82.44
13796;SHT30;40911;51.552;9.874;2023-12-22T00:04:28;5.24;83.04
13796;SHT30;40911;51.552;9.874;2023-12-22T00:06:49;5.21;82.84
13796;SHT30;40911;51.552;9.874;2023-12-22T00:09:12;5.21;82.53
13796;SHT30;40911;51.552;9.874;2023-12-22T00:11:34;5.10;83.53
13796;SHT30;40911;51.552;9.874;2023-12-22T00:13:55;5.03;83.31
13796;SHT30;40911;51.552;9.874;2023-12-22T00:16:17;5.00;83.45
13796;SHT30;40911;51.552;9.874;2023-12-22T00:18:39;5.04;82.74
13796;SHT30;40911;51.552;9.874;2023-12-22T00:21:02;5.03;82.83
13796;SHT30;40911;51.552;9.874;2023-12-22T00:23:25;4.99;82.87
13796;SHT30;40911;51.552;9.874;2023-12-22T00:25:46;4.97;82.39
13796;SHT30;40911;51.552;9.874;2023-12-22T00:28:08;4.96;82.46
13796;SHT30;40911;51.552;9.874;2023-12-22T00:30:30;4.99;82.01
13796;SHT30;40911;51.552;9.874;2023-12-22T00:32:51;4.90;82.44
13796;SHT30;40911;51.552;9.874;2023-12-22T00:35:13;4.92;82.39
13796;SHT30;40911;51.552;9.874;2023-12-22T00:37:36;5.03;81.98
13796;SHT30;40911;51.552;9.874;2023-12-22T00:39:58;4.92;82.67
13796;SHT30;40911;51.552;9.874;2023-12-22T00:42:19;4.96;82.49
13796;SHT30;40911;51.552;9.874;2023-12-22T00:44:41;5.03;82.48
13796;SHT30;40911;51.552;9.874;2023-12-22T00:47:03;4.97;82.67
13796;SHT30;40911;51.552;9.874;2023-12-22T00:49:24;4.95;82.74
13796;SHT30;40911;51.552;9.874;2023-12-22T00:51:46;5.03;82.62
13796;SHT30;40911;51.552;9.874;2023-12-22T00:54:09;5.30;80.96
13796;SHT30;40911;51.552;9.874;2023-12-22T00:56:31;5.14;81.46
13796;SHT30;40911;51.552;9.874;2023-12-22T00:58:52;5.13;81.56
13796;SHT30;40911;51.552;9.874;2023-12-22T01:01:14;5.11;81.65
13796;SHT30;40911;51.552;9.874;2023-12-22T01:03:35;4.99;82.15
13796;SHT30;40911;51.552;9.874;2023-12-22T01:05:57;4.96;81.90
13796;SHT30;40911;51.552;9.874;2023-12-22T01:08:19;5.10;81.00
13796;SHT30;40911;51.552;9.874;2023-12-22T01:10:42;5.08;81.29
13796;SHT30;40911;51.552;9.874;2023-12-22T01:13:04;5.04;81.80
13796;SHT30;40911;51.552;9.874;2023-12-22T01:15:25;5.01;82.34
13796;SHT30;40911;51.552;9.874;2023-12-22T01:17:47;5.16;80.98
13796;SHT30;40911;51.552;9.874;2023-12-22T01:20:10;5.11;81.37
13796;SHT30;40911;51.552;9.874;2023-12-22T01:22:31;5.03;82.34
13796;SHT30;40911;51.552;9.874;2023-12-22T01:24:54;5.08;81.92
13796;SHT30;40911;51.552;9.874;2023-12-22T01:27:17;5.03;82.44
13796;SHT30;40911;51.552;9.874;2023-12-22T01:29:40;5.06;82.51
13796;SHT30;40911;51.552;9.874;2023-12-22T01:32:01;5.13;82.41
13796;SHT30;40911;51.552;9.874;2023-12-22T01:34:23;5.10;82.78
13796;SHT30;40911;51.552;9.874;2023-12-22T01:36:45;5.07;83.87
13796;SHT30;40911;51.552;9.874;2023-12-22T01:39:07;5.00;84.44
13796;SHT30;40911;51.552;9.874;2023-12-22T01:41:29;4.99;84.70
13796;SHT30;40911;51.552;9.874;2023-12-22T01:43:52;4.87;85.92
13796;SHT30;40911;51.552;9.874;2023-12-22T01:46:14;4.78;86.69
13796;SHT30;40911;51.552;9.874;2023-12-22T01:48:36;4.69;87.94
13796;SHT30;40911;51.552;9.874;2023-12-22T01:50:59;4.72;87.74
13796;SHT30;40911;51.552;9.874;2023-12-22T01:53:24;4.65;88.64
13796;SHT30;40911;51.552;9.874;2023-12-22T01:55:48;4.44;89.80
13796;SHT30;40911;51.552;9.874;2023-12-22T01:58:11;3.78;92.23
13796;SHT30;40911;51.552;9.874;2023-12-22T02:00:34;3.73;92.62
13796;SHT30;40911;51.552;9.874;2023-12-22T02:02:56;3.61;92.71
13796;SHT30;40911;51.552;9.874;2023-12-22T02:05:17;3.66;92.51
13796;SHT30;40911;51.552;9.874;2023-12-22T02:07:41;3.72;91.78
13796;SHT30;40911;51.552;9.874;2023-12-22T02:10:03;3.66;92.48
13796;SHT30;40911;51.552;9.874;2023-12-22T02:12:25;3.79;90.60
13796;SHT30;40911;51.552;9.874;2023-12-22T02:14:47;3.78;91.09
13796;SHT30;40911;51.552;9.874;2023-12-22T02:17:15;3.71;91.75
13796;SHT30;40911;51.552;9.874;2023-12-22T02:19:43;3.73;91.90
13796;SHT30;40911;51.552;9.874;2023-12-22T02:22:06;3.76;92.15
13796;SHT30;40911;51.552;9.874;2023-12-22T02:24:29;3.76;92.29
13796;SHT30;40911;51.552;9.874;2023-12-22T02:26:54;3.63;92.82
13796;SHT30;40911;51.552;9.874;2023-12-22T02:29:17;3.14;91.91
13796;SHT30;40911;51.552;9.874;2023-12-22T02:31:42;2.94;93.35
13796;SHT30;40911;51.552;9.874;2023-12-22T02:34:13;2.59;93.82
13796;SHT30;40911;51.552;9.874;2023-12-22T02:36:36;2.65;94.05
13796;SHT30;40911;51.552;9.874;2023-12-22T02:38:59;2.59;94.15
13796;SHT30;40911;51.552;9.874;2023-12-22T02:41:23;2.54;94.46
13796;SHT30;40911;51.552;9.874;2023-12-22T02:43:45;2.44;94.88
13796;SHT30;40911;51.552;9.874;2023-12-22T02:46:13;2.34;95.10
13796;SHT30;40911;51.552;9.874;2023-12-22T02:48:35;2.28;95.39
13796;SHT30;40911;51.552;9.874;2023-12-22T02:50:57;2.20;95.35
13796;SHT30;40911;51.552;9.874;2023-12-22T02:53:19;2.30;95.48
13796;SHT30;40911;51.552;9.874;2023-12-22T02:55:40;2.40;94.95
13796;SHT30;40911;51.552;9.874;2023-12-22T02:58:04;2.49;94.49
13796;SHT30;40911;51.552;9.874;2023-12-22T03:00:25;2.44;94.94
13796;SHT30;40911;51.552;9.874;2023-12-22T03:02:47;2.42;95.13
13796;SHT30;40911;51.552;9.874;2023-12-22T03:05:08;2.31;95.41
13796;SHT30;40911;51.552;9.874;2023-12-22T03:07:30;2.31;95.41
13796;SHT30;40911;51.552;9.874;2023-12-22T03:09:52;2.31;95.47
13796;SHT30;40911;51.552;9.874;2023-12-22T03:12:13;2.34;95.35
13796;SHT30;40911;51.552;9.874;2023-12-22T03:14:36;2.30;95.52
13796;SHT30;40911;51.552;9.874;2023-12-22T03:16:58;2.40;95.42
13796;SHT30;40911;51.552;9.874;2023-12-22T03:19:20;2.47;94.85
13796;SHT30;40911;51.552;9.874;2023-12-22T03:21:43;2.54;94.79
13796;SHT30;40911;51.552;9.874;2023-12-22T03:24:05;2.58;94.42
13796;SHT30;40911;51.552;9.874;2023-12-22T03:26:27;2.75;93.91
13796;SHT30;40911;51.552;9.874;2023-12-22T03:28:49;2.69;94.18
13796;SHT30;40911;51.552;9.874;2023-12-22T03:31:12;2.76;94.12
13796;SHT30;40911;51.552;9.874;2023-12-22T03:33:32;2.87;93.73
13796;SHT30;40911;51.552;9.874;2023-12-22T03:35:54;3.04;93.01
13796;SHT30;40911;51.552;9.874;2023-12-22T03:38:16;2.99;93.55
13796;SHT30;40911;51.552;9.874;2023-12-22T03:40:38;3.10;93.68
13796;SHT30;40911;51.552;9.874;2023-12-22T03:42:59;3.06;94.07
13796;SHT30;40911;51.552;9.874;2023-12-22T03:45:21;3.01;94.33
13796;SHT30;40911;51.552;9.874;2023-12-22T03:47:45;2.97;94.69
13796;SHT30;40911;51.552;9.874;2023-12-22T03:50:07;2.96;94.80
13796;SHT30;40911;51.552;9.874;2023-12-22T03:52:29;2.89;94.94
13796;SHT30;40911;51.552;9.874;2023-12-22T03:54:51;2.85;95.33
13796;SHT30;40911;51.552;9.874;2023-12-22T03:57:13;2.86;95.11
13796;SHT30;40911;51.552;9.874;2023-12-22T03:59:34;2.85;95.23
13796;SHT30;40911;51.552;9.874;2023-12-22T04:01:56;2.82;95.39
13796;SHT30;40911;51.552;9.874;2023-12-22T04:04:22;2.89;94.84
13796;SHT30;40911;51.552;9.874;2023-12-22T04:06:47;2.86;94.77
13796;SHT30;40911;51.552;9.874;2023-12-22T04:09:08;2.90;94.62
13796;SHT30;40911;51.552;9.874;2023-12-22T04:11:29;2.94;94.55
13796;SHT30;40911;51.552;9.874;2023-12-22T04:13:51;2.99;94.36
13796;SHT30;40911;51.552;9.874;2023-12-22T04:16:12;3.13;93.73
13796;SHT30;40911;51.552;9.874;2023-12-22T04:18:37;3.28;92.86
13796;SHT30;40911;51.552;9.874;2023-12-22T04:20:59;3.38;92.19
13796;SHT30;40911;51.552;9.874;2023-12-22T04:23:21;3.21;93.07
13796;SHT30;40911;51.552;9.874;2023-12-22T04:25:43;3.34;92.28
13796;SHT30;40911;51.552;9.874;2023-12-22T04:28:05;3.35;92.46
13796;SHT30;40911;51.552;9.874;2023-12-22T04:30:26;3.31;92.76
13796;SHT30;40911;51.552;9.874;2023-12-22T04:32:48;3.31;92.95
13796;SHT30;40911;51.552;9.874;2023-12-22T04:35:10;3.32;92.89
13796;SHT30;40911;51.552;9.874;2023-12-22T04:37:39;3.38;92.50
13796;SHT30;40911;51.552;9.874;2023-12-22T04:40:01;3.45;92.19
13796;SHT30;40911;51.552;9.874;2023-12-22T04:42:23;3.66;90.95
13796;SHT30;40911;51.552;9.874;2023-12-22T04:44:45;3.68;90.69
13796;SHT30;40911;51.552;9.874;2023-12-22T04:47:07;3.61;91.16
13796;SHT30;40911;51.552;9.874;2023-12-22T04:49:29;3.59;91.07
13796;SHT30;40911;51.552;9.874;2023-12-22T04:51:50;3.83;89.88
13796;SHT30;40911;51.552;9.874;2023-12-22T04:54:13;3.83;90.33
13796;SHT30;40911;51.552;9.874;2023-12-22T04:56:35;3.78;90.80
13796;SHT30;40911;51.552;9.874;2023-12-22T04:58:57;3.89;90.04
13796;SHT30;40911;51.552;9.874;2023-12-22T05:01:18;4.01;89.39
13796;SHT30;40911;51.552;9.874;2023-12-22T05:03:41;3.99;89.76
13796;SHT30;40911;51.552;9.874;2023-12-22T05:06:02;3.93;90.31
13796;SHT30;40911;51.552;9.874;2023-12-22T05:08:24;3.90;90.85
13796;SHT30;40911;51.552;9.874;2023-12-22T05:10:47;3.96;90.56
13796;SHT30;40911;51.552;9.874;2023-12-22T05:13:09;3.94;90.73
13796;SHT30;40911;51.552;9.874;2023-12-22T05:15:30;3.93;91.13
13796;SHT30;40911;51.552;9.874;2023-12-22T05:17:52;4.07;90.41
13796;SHT30;40911;51.552;9.874;2023-12-22T05:20:14;3.92;91.96
13796;SHT30;40911;51.552;9.874;2023-12-22T05:22:36;3.99;91.82
13796;SHT30;40911;51.552;9.874;2023-12-22T05:24:58;3.96;92.17
13796;SHT30;40911;51.552;9.874;2023-12-22T05:27:22;3.87;92.86
13796;SHT30;40911;51.552;9.874;2023-12-22T05:29:44;4.04;91.71
13796;SHT30;40911;51.552;9.874;2023-12-22T05:32:06;3.99;92.17
13796;SHT30;40911;51.552;9.874;2023-12-22T05:34:27;4.10;91.30
13796;SHT30;40911;51.552;9.874;2023-12-22T05:36:49;4.22;90.20
13796;SHT30;40911;51.552;9.874;2023-12-22T05:39:11;4.16;90.22
13796;SHT30;40911;51.552;9.874;2023-12-22T05:41:33;4.17;90.21
13796;SHT30;40911;51.552;9.874;2023-12-22T05:43:57;4.20;89.98
13796;SHT30;40911;51.552;9.874;2023-12-22T05:46:19;4.22;90.11
13796;SHT30;40911;51.552;9.874;2023-12-22T05:48:41;4.21;90.04
13796;SHT30;40911;51.552;9.874;2023-12-22T05:51:03;4.14;90.66
13796;SHT30;40911;51.552;9.874;2023-12-22T05:53:27;4.24;89.50
13796;SHT30;40911;51.552;9.874;2023-12-22T05:55:49;4.21;89.73
13796;SHT30;40911;51.552;9.874;2023-12-22T05:58:11;4.42;88.03
13796;SHT30;40911;51.552;9.874;2023-12-22T06:00:33;4.27;88.69
13796;SHT30;40911;51.552;9.874;2023-12-22T06:02:55;4.28;88.82
13796;SHT30;40911;51.552;9.874;2023-12-22T06:05:17;4.18;89.99
13796;SHT30;40911;51.552;9.874;2023-12-22T06:07:38;4.18;89.57
13796;SHT30;40911;51.552;9.874;2023-12-22T06:10:00;4.38;87.33
13796;SHT30;40911;51.552;9.874;2023-12-22T06:12:22;4.48;86.81
13796;SHT30;40911;51.552;9.874;2023-12-22T06:14:43;4.37;88.09
13796;SHT30;40911;51.552;9.874;2023-12-22T06:17:09;4.16;89.39
13796;SHT30;40911;51.552;9.874;2023-12-22T06:19:30;4.11;89.50
13796;SHT30;40911;51.552;9.874;2023-12-22T06:21:52;4.18;88.83
13796;SHT30;40911;51.552;9.874;2023-12-22T06:24:14;4.31;88.11
13796;SHT30;40911;51.552;9.874;2023-12-22T06:26:36;4.34;87.83
13796;SHT30;40911;51.552;9.874;2023-12-22T06:28:58;4.10;89.90
13796;SHT30;40911;51.552;9.874;2023-12-22T06:31:21;3.92;91.13
13796;SHT30;40911;51.552;9.874;2023-12-22T06:33:44;3.55;93.00
13796;SHT30;40911;51.552;9.874;2023-12-22T06:36:17;3.51;94.06
13796;SHT30;40911;51.552;9.874;2023-12-22T06:38:39;3.54;94.13
13796;SHT30;40911;51.552;9.874;2023-12-22T06:41:05;3.54;94.17
13796;SHT30;40911;51.552;9.874;2023-12-22T06:43:27;3.62;94.14
13796;SHT30;40911;51.552;9.874;2023-12-22T06:45:49;3.79;93.16
13796;SHT30;40911;51.552;9.874;2023-12-22T06:48:16;3.86;92.43
13796;SHT30;40911;51.552;9.874;2023-12-22T06:50:41;3.87;92.23
13796;SHT30;40911;51.552;9.874;2023-12-22T06:53:05;3.86;92.38
13796;SHT30;40911;51.552;9.874;2023-12-22T06:55:27;3.90;92.10
13796;SHT30;40911;51.552;9.874;2023-12-22T06:57:49;3.89;92.10
13796;SHT30;40911;51.552;9.874;2023-12-22T07:00:12;4.01;90.92
13796;SHT30;40911;51.552;9.874;2023-12-22T07:02:35;3.94;91.79
13796;SHT30;40911;51.552;9.874;2023-12-22T07:05:02;4.07;91.00
13796;SHT30;40911;51.552;9.874;2023-12-22T07:07:29;4.13;90.62
13796;SHT30;40911;51.552;9.874;2023-12-22T07:09:51;4.21;90.06
13796;SHT30;40911;51.552;9.874;2023-12-22T07:12:12;4.35;89.24
13796;SHT30;40911;51.552;9.874;2023-12-22T07:14:34;4.38;89.05
13796;SHT30;40911;51.552;9.874;2023-12-22T07:16:56;4.51;88.28
13796;SHT30;40911;51.552;9.874;2023-12-22T07:19:20;4.55;88.41
13796;SHT30;40911;51.552;9.874;2023-12-22T07:21:42;4.45;89.17
13796;SHT30;40911;51.552;9.874;2023-12-22T07:24:06;4.59;88.43
13796;SHT30;40911;51.552;9.874;2023-12-22T07:26:28;4.52;88.14
13796;SHT30;40911;51.552;9.874;2023-12-22T07:28:49;4.45;89.11
13796;SHT30;40911;51.552;9.874;2023-12-22T07:31:11;4.64;87.67
13796;SHT30;40911;51.552;9.874;2023-12-22T07:33:33;4.48;88.32
13796;SHT30;40911;51.552;9.874;2023-12-22T07:35:54;4.66;86.97
13796;SHT30;40911;51.552;9.874;2023-12-22T07:38:16;4.57;87.65
13796;SHT30;40911;51.552;9.874;2023-12-22T07:40:39;4.58;87.35
13796;SHT30;40911;51.552;9.874;2023-12-22T07:43:01;4.71;86.92
13796;SHT30;40911;51.552;9.874;2023-12-22T07:45:23;4.65;87.47
13796;SHT30;40911;51.552;9.874;2023-12-22T07:47:45;4.76;87.14
13796;SHT30;40911;51.552;9.874;2023-12-22T07:50:07;4.83;87.04
13796;SHT30;40911;51.552;9.874;2023-12-22T07:52:29;4.80;86.67
13796;SHT30;40911;51.552;9.874;2023-12-22T07:54:49;4.82;86.69
13796;SHT30;40911;51.552;9.874;2023-12-22T07:57:13;4.89;86.45
13796;SHT30;40911;51.552;9.874;2023-12-22T07:59:35;5.04;85.63
13796;SHT30;40911;51.552;9.874;2023-12-22T08:01:58;4.95;86.04
13796;SHT30;40911;51.552;9.874;2023-12-22T08:04:19;4.97;86.11
13796;SHT30;40911;51.552;9.874;2023-12-22T08:06:41;5.00;85.95
13796;SHT30;40911;51.552;9.874;2023-12-22T08:09:03;4.89;86.74
13796;SHT30;40911;51.552;9.874;2023-12-22T08:11:24;4.87;86.84
13796;SHT30;40911;51.552;9.874;2023-12-22T08:13:48;4.97;86.42
13796;SHT30;40911;51.552;9.874;2023-12-22T08:16:10;4.96;86.23
13796;SHT30;40911;51.552;9.874;2023-12-22T08:18:31;4.92;86.60
13796;SHT30;40911;51.552;9.874;2023-12-22T08:20:53;4.87;86.95
13796;SHT30;40911;51.552;9.874;2023-12-22T08:23:15;4.95;86.50
13796;SHT30;40911;51.552;9.874;2023-12-22T08:25:37;4.92;86.74
13796;SHT30;40911;51.552;9.874;2023-12-22T08:27:59;4.99;86.25
13796;SHT30;40911;51.552;9.874;2023-12-22T08:30:22;4.99;86.46
13796;SHT30;40911;51.552;9.874;2023-12-22T08:32:44;5.00;86.33
13796;SHT30;40911;51.552;9.874;2023-12-22T08:35:07;5.06;85.88
13796;SHT30;40911;51.552;9.874;2023-12-22T08:37:28;5.07;86.18
13796;SHT30;40911;51.552;9.874;2023-12-22T08:39:50;5.06;86.32
13796;SHT30;40911;51.552;9.874;2023-12-22T08:42:12;5.04;86.33
13796;SHT30;40911;51.552;9.874;2023-12-22T08:44:34;5.00;86.76
13796;SHT30;40911;51.552;9.874;2023-12-22T08:46:59;5.04;86.76
13796;SHT30;40911;51.552;9.874;2023-12-22T08:49:21;5.06;86.35
13796;SHT30;40911;51.552;9.874;2023-12-22T08:51:43;5.07;86.60
13796;SHT30;40911;51.552;9.874;2023-12-22T08:54:04;5.06;86.65
13796;SHT30;40911;51.552;9.874;2023-12-22T08:56:26;5.04;86.95
13796;SHT30;40911;51.552;9.874;2023-12-22T08:58:48;5.14;86.30
13796;SHT30;40911;51.552;9.874;2023-12-22T09:01:14;5.13;86.36
13796;SHT30;40911;51.552;9.874;2023-12-22T09:03:37;5.17;85.85
13796;SHT30;40911;51.552;9.874;2023-12-22T09:06:04;5.16;86.44
13796;SHT30;40911;51.552;9.874;2023-12-22T09:08:25;5.17;86.30
13796;SHT30;40911;51.552;9.874;2023-12-22T09:10:47;5.27;85.61
13796;SHT30;40911;51.552;9.874;2023-12-22T09:13:11;5.24;86.08
13796;SHT30;40911;51.552;9.874;2023-12-22T09:15:32;5.21;86.82
13796;SHT30;40911;51.552;9.874;2023-12-22T09:17:54;5.13;87.95
13796;SHT30;40911;51.552;9.874;2023-12-22T09:20:17;5.13;88.02
13796;SHT30;40911;51.552;9.874;2023-12-22T09:22:39;5.16;88.04
13796;SHT30;40911;51.552;9.874;2023-12-22T09:25:12;5.13;88.22
13796;SHT30;40911;51.552;9.874;2023-12-22T09:27:34;5.18;87.41
13796;SHT30;40911;51.552;9.874;2023-12-22T09:29:59;5.16;87.35
13796;SHT30;40911;51.552;9.874;2023-12-22T09:32:20;5.14;87.66
13796;SHT30;40911;51.552;9.874;2023-12-22T09:34:42;5.25;87.17
13796;SHT30;40911;51.552;9.874;2023-12-22T09:37:05;5.24;87.39
13796;SHT30;40911;51.552;9.874;2023-12-22T09:39:26;5.16;88.06
13796;SHT30;40911;51.552;9.874;2023-12-22T09:41:49;5.25;87.09
13796;SHT30;40911;51.552;9.874;2023-12-22T09:44:11;5.25;87.38
13796;SHT30;40911;51.552;9.874;2023-12-22T09:46:34;5.27;87.40
13796;SHT30;40911;51.552;9.874;2023-12-22T09:48:56;5.28;87.44
13796;SHT30;40911;51.552;9.874;2023-12-22T09:51:27;5.31;87.13
13796;SHT30;40911;51.552;9.874;2023-12-22T09:53:54;5.32;87.04
13796;SHT30;40911;51.552;9.874;2023-12-22T09:56:26;5.35;87.41
13796;SHT30;40911;51.552;9.874;2023-12-22T09:58:49;5.35;87.71
13796;SHT30;40911;51.552;9.874;2023-12-22T10:01:13;5.28;88.13
13796;SHT30;40911;51.552;9.874;2023-12-22T10:03:37;5.27;88.61
13796;SHT30;40911;51.552;9.874;2023-12-22T10:05:58;5.31;88.82
13796;SHT30;40911;51.552;9.874;2023-12-22T10:08:20;5.37;88.25
13796;SHT30;40911;51.552;9.874;2023-12-22T10:10:47;5.34;88.57
13796;SHT30;40911;51.552;9.874;2023-12-22T10:13:09;5.34;88.54
13796;SHT30;40911;51.552;9.874;2023-12-22T10:15:33;5.41;88.63
13796;SHT30;40911;51.552;9.874;2023-12-22T10:17:56;5.41;88.45
13796;SHT30;40911;51.552;9.874;2023-12-22T10:20:18;5.39;88.60
13796;SHT30;40911;51.552;9.874;2023-12-22T10:22:39;5.45;88.18
13796;SHT30;40911;51.552;9.874;2023-12-22T10:25:03;5.39;88.81
13796;SHT30;40911;51.552;9.874;2023-12-22T10:27:36;5.39;88.97
13796;SHT30;40911;51.552;9.874;2023-12-22T10:29:57;5.37;89.34
13796;SHT30;40911;51.552;9.874;2023-12-22T10:32:19;5.39;89.01
13796;SHT30;40911;51.552;9.874;2023-12-22T10:34:41;5.37;89.45
13796;SHT30;40911;51.552;9.874;2023-12-22T10:37:03;5.42;89.25
13796;SHT30;40911;51.552;9.874;2023-12-22T10:39:26;5.41;89.55
13796;SHT30;40911;51.552;9.874;2023-12-22T10:41:48;5.39;89.83
13796;SHT30;40911;51.552;9.874;2023-12-22T10:44:12;5.44;89.35
13796;SHT30;40911;51.552;9.874;2023-12-22T10:46:34;5.38;89.77
13796;SHT30;40911;51.552;9.874;2023-12-22T10:48:56;5.41;89.60
13796;SHT30;40911;51.552;9.874;2023-12-22T10:51:18;5.48;89.40
13796;SHT30;40911;51.552;9.874;2023-12-22T10:53:40;5.46;89.66
13796;SHT30;40911;51.552;9.874;2023-12-22T10:56:02;5.46;89.73
13796;SHT30;40911;51.552;9.874;2023-12-22T10:58:28;5.46;89.90
13796;SHT30;40911;51.552;9.874;2023-12-22T11:00:52;5.46;89.71
13796;SHT30;40911;51.552;9.874;2023-12-22T11:03:17;5.49;89.69
13796;SHT30;40911;51.552;9.874;2023-12-22T11:05:40;5.49;89.85
13796;SHT30;40911;51.552;9.874;2023-12-22T11:08:06;5.45;90.07
13796;SHT30;40911;51.552;9.874;2023-12-22T11:10:30;5.52;89.47
13796;SHT30;40911;51.552;9.874;2023-12-22T11:12:53;5.55;90.04
13796;SHT30;40911;51.552;9.874;2023-12-22T11:15:28;5.58;89.45
13796;SHT30;40911;51.552;9.874;2023-12-22T11:17:55;5.65;89.33
13796;SHT30;40911;51.552;9.874;2023-12-22T11:20:18;5.68;88.96
13796;SHT30;40911;51.552;9.874;2023-12-22T11:22:42;5.69;88.90
13796;SHT30;40911;51.552;9.874;2023-12-22T11:25:05;5.71;88.82
13796;SHT30;40911;51.552;9.874;2023-12-22T11:27:29;5.76;88.55
13796;SHT30;40911;51.552;9.874;2023-12-22T11:29:51;5.76;88.63
13796;SHT30;40911;51.552;9.874;2023-12-22T11:32:15;5.78;88.55
13796;SHT30;40911;51.552;9.874;2023-12-22T11:34:38;5.81;88.48
13796;SHT30;40911;51.552;9.874;2023-12-22T11:37:03;5.81;88.52
13796;SHT30;40911;51.552;9.874;2023-12-22T11:39:25;5.89;88.08
13796;SHT30;40911;51.552;9.874;2023-12-22T11:41:46;5.85;88.34
13796;SHT30;40911;51.552;9.874;2023-12-22T11:44:09;5.82;88.88
13796;SHT30;40911;51.552;9.874;2023-12-22T11:46:31;5.85;88.42
13796;SHT30;40911;51.552;9.874;2023-12-22T11:48:55;5.87;88.52
13796;SHT30;40911;51.552;9.874;2023-12-22T11:51:18;5.94;88.43
13796;SHT30;40911;51.552;9.874;2023-12-22T11:53:42;5.89;88.63
13796;SHT30;40911;51.552;9.874;2023-12-22T11:56:05;5.93;88.19
13796;SHT30;40911;51.552;9.874;2023-12-22T11:58:39;5.94;88.50
13796;SHT30;40911;51.552;9.874;2023-12-22T12:01:01;6.00;87.89
13796;SHT30;40911;51.552;9.874;2023-12-22T12:03:24;5.93;88.47
13796;SHT30;40911;51.552;9.874;2023-12-22T12:05:46;5.93;88.66
13796;SHT30;40911;51.552;9.874;2023-12-22T12:08:11;5.92;88.60
13796;SHT30;40911;51.552;9.874;2023-12-22T12:10:51;6.00;88.25
13796;SHT30;40911;51.552;9.874;2023-12-22T12:13:15;6.00;88.40
13796;SHT30;40911;51.552;9.874;2023-12-22T12:15:37;5.93;88.72
13796;SHT30;40911;51.552;9.874;2023-12-22T12:18:00;6.00;88.54
13796;SHT30;40911;51.552;9.874;2023-12-22T12:20:21;5.97;88.89
13796;SHT30;40911;51.552;9.874;2023-12-22T12:22:43;5.97;88.85
13796;SHT30;40911;51.552;9.874;2023-12-22T12:25:09;5.96;89.23
13796;SHT30;40911;51.552;9.874;2023-12-22T12:27:32;5.92;89.45
13796;SHT30;40911;51.552;9.874;2023-12-22T12:29:55;5.89;89.61
13796;SHT30;40911;51.552;9.874;2023-12-22T12:32:17;5.86;90.01
13796;SHT30;40911;51.552;9.874;2023-12-22T12:34:39;5.85;90.16
13796;SHT30;40911;51.552;9.874;2023-12-22T12:37:02;5.86;90.10
13796;SHT30;40911;51.552;9.874;2023-12-22T12:39:24;5.82;90.71
13796;SHT30;40911;51.552;9.874;2023-12-22T12:41:53;5.81;90.55
13796;SHT30;40911;51.552;9.874;2023-12-22T12:44:17;5.79;90.84
13796;SHT30;40911;51.552;9.874;2023-12-22T12:46:39;5.78;90.84
13796;SHT30;40911;51.552;9.874;2023-12-22T12:49:06;5.82;90.94
13796;SHT30;40911;51.552;9.874;2023-12-22T12:51:28;5.82;90.96
13796;SHT30;40911;51.552;9.874;2023-12-22T12:53:49;5.81;91.15
13796;SHT30;40911;51.552;9.874;2023-12-22T12:56:12;5.83;91.17
13796;SHT30;40911;51.552;9.874;2023-12-22T12:58:36;5.83;91.23
13796;SHT30;40911;51.552;9.874;2023-12-22T13:01:07;5.96;90.46
13796;SHT30;40911;51.552;9.874;2023-12-22T13:03:31;5.93;90.22
13796;SHT30;40911;51.552;9.874;2023-12-22T13:05:52;5.92;90.31
13796;SHT30;40911;51.552;9.874;2023-12-22T13:08:14;5.94;90.31
13796;SHT30;40911;51.552;9.874;2023-12-22T13:10:36;5.93;90.49
13796;SHT30;40911;51.552;9.874;2023-12-22T13:12:58;5.99;90.14
13796;SHT30;40911;51.552;9.874;2023-12-22T13:15:21;5.92;90.52
13796;SHT30;40911;51.552;9.874;2023-12-22T13:17:43;5.94;90.57
13796;SHT30;40911;51.552;9.874;2023-12-22T13:20:06;5.93;90.56
13796;SHT30;40911;51.552;9.874;2023-12-22T13:22:28;5.89;90.60
13796;SHT30;40911;51.552;9.874;2023-12-22T13:24:56;5.94;90.70
13796;SHT30;40911;51.552;9.874;2023-12-22T13:27:18;5.93;90.71
13796;SHT30;40911;51.552;9.874;2023-12-22T13:29:43;5.93;90.76
13796;SHT30;40911;51.552;9.874;2023-12-22T13:32:07;5.96;90.68
13796;SHT30;40911;51.552;9.874;2023-12-22T13:34:29;5.99;90.42
13796;SHT30;40911;51.552;9.874;2023-12-22T13:36:51;5.99;90.38
13796;SHT30;40911;51.552;9.874;2023-12-22T13:39:12;5.94;90.32
13796;SHT30;40911;51.552;9.874;2023-12-22T13:41:34;6.03;89.79
13796;SHT30;40911;51.552;9.874;2023-12-22T13:43:56;6.02;89.53
13796;SHT30;40911;51.552;9.874;2023-12-22T13:46:18;6.04;88.95
13796;SHT30;40911;51.552;9.874;2023-12-22T13:48:41;6.06;89.03
13796;SHT30;40911;51.552;9.874;2023-12-22T13:51:03;6.09;88.82
13796;SHT30;40911;51.552;9.874;2023-12-22T13:53:25;6.04;89.30
13796;SHT30;40911;51.552;9.874;2023-12-22T13:55:54;6.02;89.46
13796;SHT30;40911;51.552;9.874;2023-12-22T13:58:15;6.04;89.39
13796;SHT30;40911;51.552;9.874;2023-12-22T14:00:37;6.04;89.39
13796;SHT30;40911;51.552;9.874;2023-12-22T14:03:01;6.07;89.29
13796;SHT30;40911;51.552;9.874;2023-12-22T14:05:25;6.09;89.06
13796;SHT30;40911;51.552;9.874;2023-12-22T14:07:48;6.09;89.03
13796;SHT30;40911;51.552;9.874;2023-12-22T14:10:11;6.07;88.85
13796;SHT30;40911;51.552;9.874;2023-12-22T14:12:33;6.09;89.31
13796;SHT30;40911;51.552;9.874;2023-12-22T14:14:54;6.06;89.06
13796;SHT30;40911;51.552;9.874;2023-12-22T14:17:16;6.02;89.50
13796;SHT30;40911;51.552;9.874;2023-12-22T14:19:40;5.99;89.97
13796;SHT30;40911;51.552;9.874;2023-12-22T14:22:03;5.93;90.81
13796;SHT30;40911;51.552;9.874;2023-12-22T14:24:25;5.90;90.62
13796;SHT30;40911;51.552;9.874;2023-12-22T14:26:52;5.83;91.31
13796;SHT30;40911;51.552;9.874;2023-12-22T14:29:14;5.78;91.74
13796;SHT30;40911;51.552;9.874;2023-12-22T14:31:36;5.81;91.31
13796;SHT30;40911;51.552;9.874;2023-12-22T14:33:57;5.73;91.60
13796;SHT30;40911;51.552;9.874;2023-12-22T14:36:19;5.68;91.80
13796;SHT30;40911;51.552;9.874;2023-12-22T14:38:42;5.65;91.78
13796;SHT30;40911;51.552;9.874;2023-12-22T14:41:04;5.65;91.40
13796;SHT30;40911;51.552;9.874;2023-12-22T14:43:25;5.62;91.52
13796;SHT30;40911;51.552;9.874;2023-12-22T14:45:47;5.52;92.12
13796;SHT30;40911;51.552;9.874;2023-12-22T14:48:09;5.48;92.02
13796;SHT30;40911;51.552;9.874;2023-12-22T14:50:31;5.46;92.20
13796;SHT30;40911;51.552;9.874;2023-12-22T14:52:52;5.45;92.34
13796;SHT30;40911;51.552;9.874;2023-12-22T14:55:15;5.39;92.66
13796;SHT30;40911;51.552;9.874;2023-12-22T14:57:38;5.34;93.02
13796;SHT30;40911;51.552;9.874;2023-12-22T15:00:00;5.34;93.15
13796;SHT30;40911;51.552;9.874;2023-12-22T15:02:22;5.30;93.58
13796;SHT30;40911;51.552;9.874;2023-12-22T15:04:44;5.30;93.28
13796;SHT30;40911;51.552;9.874;2023-12-22T15:07:06;5.27;93.65
13796;SHT30;40911;51.552;9.874;2023-12-22T15:09:27;5.24;93.75
13796;SHT30;40911;51.552;9.874;2023-12-22T15:11:50;5.21;93.85
13796;SHT30;40911;51.552;9.874;2023-12-22T15:14:12;5.17;93.94
13796;SHT30;40911;51.552;9.874;2023-12-22T15:16:38;5.13;94.14